Главная страница
METAR-TAF:

METAR-TAF

Аэропорты :

Понпеи, Микронезия

широта: 06-59N, долгота: 158-12E, высота над уровнем моря: 2 м

Текущие метеонаблюдения

Эта сводка был подготовлена 15 часа и 22 минут назад, в 03:50 UTC
Ветер 8 Узел от северо-западный
Температура 31°C
Влажность 71%
Давление 1005 hPa
Видимость: 24.1 км
Отдельные облака на высоте 1800 фута, мощно-кучевые.
Рассеянная облачность на высоте 13000 фута
Рассеянная облачность на высоте 30000 фута

METAR: PTPN 230350Z 32008KT 15SM SCT018TCU BKN130 BKN300 31/25 A2968 RMK TCU SE-SW LAST

Время: 06:12 (19:12 UTC)

Прогноз

Эта сводка был подготовлена 19 часа и 46 минут назад, в 23:26 UTC
Прогноз действительный с 23-го 00 UTC до 23-го 24 UTC
Ветер 6 Узел от северно-северо-западный
Видимость: 10 км
Отдельные облака на высоте 1800 фута
Отдельные облака на высоте 4000 фута
Рассеянная облачность на высоте 15000 фута
ливни в окрестностях

TAF: PTPN 222326Z 2300/2324 34006KT P6SM VCSH SCT018 SCT040 BKN150

Метеонаблюдения и прогнозы для более 4000 аэропортов (сводки METAR и TAF).

Имеющиеся станции представлены на карте желтыми и красными точками.

Чтобы увидеть название станции, наведите на нее мышь.

Затем щелкните, чтобы увидеть метеонаблюдения и метеопрогнозы.

Управление картой: чтобы увеличить масштаб, щелкните зеленые кнопки с черным крестиком; чтобы уменьшить масштаб, щелкните зеленую кнопку с тире; для просмотра соседних карт щелкайте зеленые стрелки.


METAR-TAF: